Aviation Digital Data Service (ADDS)

Output produced by METARs form (1825 UTC 16 August 2018)
found at http://www.aviationweather.gov/adds/metars/
 
KGBD 161741Z 1618/1718 18009KT P6SM FEW045 
     FM162300 18007KT P6SM VCTS SCT060CB 
     FM170200 04007KT P6SM VCTS SCT060CB 
     FM170600 04007KT P6SM SCT100 AMD LTD TO CLD VIS AND WIND
       
KGCC 161720Z 1618/1718 VRB06KT P6SM SCT200
       
KGCK 161737Z 1618/1718 19010KT P6SM FEW250 
     FM170200 10008KT P6SM SCT250 
     FM170500 03007KT P6SM SCT250
       
KGCN 161720Z 1618/1718 VRB05KT P6SM SCT100 
     FM162000 VRB06KT P6SM VCTS FEW060CB SCT100 
     TEMPO 1622/1624 VRB10G20KT 5SM -TSRA BKN060CB 
     FM170300 VRB04KT P6SM SCT110
       
KGDV 161720Z 1618/1718 VRB05KT P6SM SKC 
     FM162200 09008KT P6SM SKC 
     FM170400 VRB05KT P6SM SKC 
     FM171600 18008KT P6SM FEW160
       
KGEG 161720Z 1618/1718 08005KT 3SM FU HZ SCT025 BKN050 BKN150 
     FM162000 21006G12KT 5SM FU HZ SCT035 BKN120 
     FM170200 21006KT 5SM FU HZ SCT035 BKN120 
     FM170500 16004KT 4SM FU HZ FEW001 SCT040 BKN120 
     PROB30 1711/1717 4SM -TSRA FU HZ BKN090CB BKN120
       
TAF KGFA 161100Z 1611/1717 VRB06KT 9999 SKC QNH3002INS 
     BECMG 1621/1623 31009KT 9999 BKN130 QNH3007INS TX32/1621Z TN13/1612Z
       
KGFK 161736Z 1618/1718 VRB04KT P6SM SKC 
     FM162100 35007KT P6SM FEW250 
     FM170200 VRB05KT P6SM FEW250
       
KGFL 161741Z 1618/1718 VRB05KT P6SM SCT045 SCT250 
     FM162330 VRB03KT P6SM FEW050 SCT250 
     FM171000 00000KT 6SM BR VCSH BKN060 
     PROB30 1710/1716 4SM -SHRA BR BKN040 
     FM171600 19007KT 6SM -SHRA VCTS BKN040CB
       
KGGG 161745Z 1618/1718 20011KT P6SM FEW045 SCT250 
     FM170100 18006KT P6SM FEW250 
     FM171500 23008KT P6SM SCT040 BKN250
       
KGGW 161720Z 1618/1718 15010KT P6SM SKC 
     FM170300 12007KT P6SM FEW150
       
KGJT 161740Z 1618/1718 20006KT P6SM SCT110 SCT200 
     FM162000 28008KT P6SM FEW110 SCT250 
     FM170100 13008KT P6SM SCT120 BKN200 
     FM171500 15005KT P6SM FEW250
       
KGKY 161735Z 1618/1718 19012KT P6SM FEW050 BKN300 
     FM171100 19011KT P6SM VCSH SCT120 
     FM171500 20011KT P6SM SCT120
       
KGLD 161740Z 1618/1718 02010G19KT P6SM SKC 
     FM170600 13005KT P6SM FEW250 
     FM171000 VRB03KT 3SM BR FEW010 
     FM171300 VRB03KT P6SM SCT050
       
KGLH 161759Z 1618/1718 20005KT P6SM SCT050 SCT120
       
KGLS 161720Z 1618/1718 19009KT P6SM SCT025
       
KGMU 161734Z 1618/1718 23006KT P6SM SCT050 
     FM162300 21004KT P6SM FEW060 SCT200 
     FM171500 22008KT P6SM SCT060
       
KGNV 161720Z 1618/1718 17006KT P6SM VCTS SCT035CB BKN070 
     TEMPO 1620/1622 VRB15G25KT 4SM TSRA BKN025CB 
     FM170200 VRB03KT P6SM SCT150 BKN250
       
KGON 161722Z 1618/1718 24012KT P6SM FEW050 FEW250 
     FM170100 VRB03KT P6SM FEW050 SCT200 
     FM171400 24009KT P6SM FEW050 SCT150 
     FM171700 21011KT P6SM FEW050 SCT150 SCT250
       
KGPT 161738Z 1618/1718 12008KT P6SM VCTS SCT025CB 
     TEMPO 1619/1623 VRB20G30KT 3SM TSRA BKN030CB 
     FM170100 14004KT P6SM FEW025 BKN110 
     FM171500 15005KT P6SM BKN250
       
KGRB 161748Z 1618/1718 08008KT P6SM VCSH SCT035 BKN060 
     FM170000 01004KT P6SM SCT040 BKN120 
     FM170900 36004KT P6SM BKN090 
     TEMPO 1709/1713 4SM BR 
     FM171500 03006KT P6SM SCT080
       
TAF KGRF 161304Z 1613/1719 VRB06KT 6000 FU BKN006 QNH3002INS 
     TEMPO 1613/1619 BKN010 
     BECMG 1618/1619 25009KT 8000 FU SKC QNH3003INS 
     BECMG 1620/1621 25009KT 9999 NSW SKC QNH3005INS 
     BECMG 1701/1702 24012KT 9999 SKC QNH3004INS 
     BECMG 1708/1709 VRB06KT 9999 BKN010 QNH3010INS TX23/1623Z TN14/1613Z
       
KGRI 161739Z 1618/1718 VRB04KT P6SM BKN045 
     FM162000 02005KT P6SM SCT080 
     FM170400 VRB03KT P6SM SCT250 
     FM170900 VRB03KT 4SM BR SCT010 SCT025 
     FM171500 VRB04KT P6SM SCT025
       
TAF KGRK 161600Z 1616/1722 16010G15KT 9999 SKC QNH3000INS 
     BECMG 1623/1624 17009KT 9999 FEW050 QNH2995INS 
     BECMG 1715/1716 18010G15KT 9999 SKC QNH2992INS TX38/1621Z TN24/1712Z
       
KGRR 161740Z 1618/1718 13004KT P6SM VCSH SCT025 BKN040 
     FM162200 30004KT P6SM VCTS SCT025 BKN040CB 
     FM170200 30004KT P6SM VCSH SCT025 BKN040 
     FM170800 00000KT 5SM BR BKN025 
     FM171500 06005KT P6SM VCSH SCT025 BKN040
       
TAF KGSB 161200Z 1612/1718 23006KT 9999 FEW040 SCT100 QNH3006INS 
     BECMG 1615/1616 24006KT 9999 SCT050 QNH2996INS 
     BECMG 1619/1620 21006KT 9999 VCSH FEW030 QNH3008INS 
     BECMG 1704/1705 19005KT 6000 BR SCT006 QNH3009INS 
     BECMG 1713/1714 23009KT 9999 NSW SKC QNH3010INS TX33/1620Z TN22/1709Z
       
KGSO 161724Z 1618/1718 23007KT P6SM SCT040 SCT250 
     FM170000 00000KT P6SM FEW200 
     FM171400 23009KT P6SM SCT040 SCT250
       
KGSP 161734Z 1618/1718 22007KT P6SM SCT050 
     FM162300 20004KT P6SM FEW060 SCT200 
     FM171500 22007KT P6SM SCT060
       
TAF KGTB 161700Z 1617/1723 VRB06KT 9999 SCT050 BKN200 QNH3005INS 
     BECMG 1620/1621 VRB06KT 9999 SCT060 QNH3003INS 
     BECMG 1704/1705 17006KT 9999 FEW020 SCT030 QNH3000INS BEMCMG 1708/1709 15006KT 9000 -SHRA SCT020 OVC050 QNH2993INS 
     BECMG 1714/1715 19009KT 9000 -SHRA SCT010 OVC030 QNH2981INS 
     TEMPO 1718/1723 22012G18KT 8000 -TSRA OVC010CB TX26/1620Z TN20/1708Z
       
KGTF 161730Z 1618/1718 24007KT 6SM FU SKC 
     FM162100 VRB05KT P6SM BKN150 
     FM170300 23005KT P6SM SCT180
       
KGTR 161759Z 1618/1718 19007KT P6SM VCTS BKN040CB 
     FM170100 18006KT P6SM BKN080 BKN150
       
KGUC 161740Z 1618/1718 24005KT P6SM VCTS SCT080CB BKN150 
     FM170100 03007KT P6SM SCT050 BKN110 
     FM171400 VRB04KT P6SM FEW080 SCT250
       
KGUP 161727Z 1618/1718 VRB06KT P6SM BKN120 
     FM162100 26008KT P6SM VCTS SCT070CB SCT150 
     TEMPO 1621/1624 VRB25G35KT 
     FM170100 24007KT P6SM SCT100 SCT220 
     FM170500 VRB04KT P6SM SCT150 
     FM171300 22006KT P6SM BKN120
       
TAF AMD KGUS 161200Z 1612/1717 17012KT 8000 -SHRA OVC007 QNH2990INS 
     TEMPO 1612/1615 BKN005 OVC015 
     BECMG 1617/1618 20010G15KT 9000 -SHRA OVC015 QNH2988INS 
     TEMPO 1621/1624 27010G15KT 8000 -TSRA BKN030CB 
     BECMG 1708/1709 20006KT 9999 NSW BKN020 QNH2996INS TX27/1621Z TN20/1612Z
       
KGWO 161759Z 1618/1718 19006KT P6SM SCT040 
     FM162000 20007KT P6SM VCTS BKN050CB 
     FM170100 18005KT P6SM SCT050
       
KGYY 161724Z 1618/1718 03008KT P6SM VCSH BKN035 BKN050 
     FM170200 02004KT P6SM VCSH SCT035 BKN070 
     FM170800 VRB03KT 5SM BR VCSH BKN035 OVC080 
     FM171400 03005KT P6SM SCT020 BKN035